Time;durP1;ratioP1;P1;durP2;ratioP2;P2;SDS_P1;SDS_P2;PMS_P1;PMS_P2;Temp;Humidity;BMP_temperature;BMP_pressure;BME280_temperature;BME280_humidity;BME280_pressure;Samples;Min_cycle;Max_cycle;Signal;HPM_P1;HPM_P2
2023/07/01 00:02:14;;;;;;;6.03;1.52;;;19.80;99.90;;;;;;5055000;28;20035;-91
2023/07/01 00:04:41;;;;;;;6.30;1.20;;;19.80;99.90;;;;;;5054653;28;20033;-89
2023/07/01 00:07:07;;;;;;;3.42;1.58;;;19.90;99.90;;;;;;5054329;28;20033;-92
2023/07/01 00:09:32;;;;;;;5.95;1.20;;;20.00;99.90;;;;;;5054632;28;20505;-91
2023/07/01 00:11:58;;;;;;;6.47;1.30;;;20.00;99.90;;;;;;5054061;28;20028;-92
2023/07/01 00:14:24;;;;;;;5.72;1.60;;;20.00;99.90;;;;;;5054395;28;20029;-91
2023/07/01 00:16:50;;;;;;;8.75;1.50;;;20.00;99.90;;;;;;5055257;28;20032;-91
2023/07/01 00:19:17;;;;;;;10.15;1.50;;;20.00;99.90;;;;;;5054323;28;20409;-89
2023/07/01 00:21:43;;;;;;;9.30;2.13;;;20.00;99.90;;;;;;5055416;28;20233;-91
2023/07/01 00:24:09;;;;;;;6.05;1.35;;;20.00;99.90;;;;;;5053964;28;20489;-88
2023/07/01 00:26:35;;;;;;;6.40;0.88;;;19.90;99.90;;;;;;5054638;28;20037;-92
2023/07/01 00:29:03;;;;;;;5.95;1.38;;;19.90;99.90;;;;;;5053803;28;20098;-91
2023/07/01 00:31:29;;;;;;;7.10;1.20;;;19.80;99.90;;;;;;5053757;28;20056;-93
2023/07/01 00:33:55;;;;;;;5.63;1.52;;;19.80;99.90;;;;;;5053382;28;20064;-93
2023/07/01 00:36:20;;;;;;;8.73;1.33;;;19.70;99.90;;;;;;5053860;28;20071;-93
2023/07/01 00:38:46;;;;;;;13.25;1.77;;;19.50;99.90;;;;;;5054234;28;20087;-90
2023/07/01 00:41:12;;;;;;;5.78;1.60;;;19.40;99.90;;;;;;5053759;28;20033;-91
2023/07/01 00:43:37;;;;;;;8.68;1.55;;;19.30;99.90;;;;;;5055044;28;20031;-91
2023/07/01 00:46:04;;;;;;;6.75;1.20;;;19.20;99.90;;;;;;5053611;28;20035;-95
2023/07/01 00:48:30;;;;;;;11.10;1.73;;;19.10;99.90;;;;;;5054560;28;20060;-92
2023/07/01 00:50:56;;;;;;;14.27;2.38;;;19.00;99.90;;;;;;5053724;28;20025;-90
2023/07/01 00:53:23;;;;;;;5.65;1.70;;;18.90;99.90;;;;;;5054195;28;20049;-89
2023/07/01 00:55:49;;;;;;;10.82;1.50;;;19.00;99.90;;;;;;5054617;28;20029;-89
2023/07/01 00:58:15;;;;;;;7.40;1.42;;;19.10;99.90;;;;;;5053552;28;20025;-90
2023/07/01 01:00:43;;;;;;;3.72;1.48;;;19.20;99.90;;;;;;5054562;28;20021;-90
2023/07/01 01:03:38;;;;;;;6.00;1.70;;;19.20;99.90;;;;;;5054307;28;20039;-92
2023/07/01 01:06:48;;;;;;;7.18;1.42;;;19.30;99.90;;;;;;5054237;28;20053;-91
2023/07/01 01:09:26;;;;;;;6.32;1.60;;;19.30;99.90;;;;;;5053965;28;20068;-91
2023/07/01 01:11:54;;;;;;;6.47;1.83;;;19.20;99.90;;;;;;5053082;28;20029;-89
2023/07/01 01:14:21;;;;;;;5.05;1.48;;;19.10;99.90;;;;;;5052811;28;20053;-91
2023/07/01 01:16:49;;;;;;;4.88;1.88;;;19.10;99.90;;;;;;5052287;28;20425;-90
2023/07/01 01:19:39;;;;;;;3.67;1.75;;;19.00;99.90;;;;;;5050947;28;20024;-88
2023/07/01 01:22:30;;;;;;;7.30;1.92;;;18.90;99.90;;;;;;5057649;28;20021;-86
2023/07/01 01:24:59;;;;;;;7.40;2.20;;;18.80;99.90;;;;;;5053920;28;20051;-89
2023/07/01 01:27:28;;;;;;;4.20;1.48;;;18.80;99.90;;;;;;5052429;28;20028;-88
2023/07/01 01:29:54;;;;;;;6.20;1.30;;;18.80;99.90;;;;;;5051835;28;20083;-88
2023/07/01 01:32:20;;;;;;;4.82;1.45;;;18.80;99.90;;;;;;5053221;28;20033;-88
2023/07/01 01:34:46;;;;;;;5.25;1.20;;;18.90;99.90;;;;;;5052631;28;20078;-87
2023/07/01 01:37:22;;;;;;;6.20;1.35;;;18.90;99.90;;;;;;5052646;28;20037;-91
2023/07/01 01:39:55;;;;;;;2.58;1.15;;;19.00;99.90;;;;;;5052845;28;20029;-90
2023/07/01 01:42:27;;;;;;;5.50;1.88;;;18.90;99.90;;;;;;5053409;28;20143;-89
2023/07/01 01:44:54;;;;;;;6.65;1.70;;;19.00;99.90;;;;;;5055709;28;20060;-89
2023/07/01 01:47:23;;;;;;;6.32;1.50;;;19.00;99.90;;;;;;5062428;28;20087;-87
2023/07/01 01:49:56;;;;;;;4.68;1.65;;;19.00;99.90;;;;;;5053639;28;20108;-89
2023/07/01 01:52:23;;;;;;;4.57;1.30;;;19.00;99.90;;;;;;5052561;28;20564;-89
2023/07/01 01:54:52;;;;;;;3.88;1.08;;;19.10;99.90;;;;;;5052348;28;20033;-89
2023/07/01 01:57:18;;;;;;;3.00;1.50;;;19.10;99.90;;;;;;5053534;28;20044;-89
2023/07/01 01:59:44;;;;;;;3.10;1.10;;;19.20;99.90;;;;;;5055104;28;20029;-89
2023/07/01 02:02:10;;;;;;;11.98;1.70;;;19.20;99.90;;;;;;5052054;28;20029;-88
2023/07/01 02:04:36;;;;;;;3.80;1.55;;;19.20;99.90;;;;;;5052901;28;20032;-87
2023/07/01 02:07:02;;;;;;;9.98;1.60;;;19.30;99.90;;;;;;5050889;28;20037;-89
2023/07/01 02:09:30;;;;;;;3.20;1.13;;;19.30;99.90;;;;;;5053414;28;20025;-89
2023/07/01 02:11:56;;;;;;;3.42;1.65;;;19.20;99.90;;;;;;5052138;28;20051;-90
2023/07/01 02:14:23;;;;;;;2.95;1.42;;;19.20;99.90;;;;;;5052355;28;20037;-90
2023/07/01 02:16:53;;;;;;;11.57;1.27;;;19.20;99.90;;;;;;5052327;28;20520;-91
2023/07/01 02:19:18;;;;;;;7.10;1.50;;;19.10;99.90;;;;;;5052423;28;20086;-90
2023/07/01 02:21:44;;;;;;;5.93;1.60;;;19.00;99.90;;;;;;5052324;28;20124;-90
2023/07/01 02:24:10;;;;;;;3.15;1.48;;;19.00;99.90;;;;;;5052046;28;20029;-90
2023/07/01 02:26:36;;;;;;;2.35;1.20;;;18.90;99.90;;;;;;5053106;28;20017;-88
2023/07/01 02:29:02;;;;;;;7.80;1.70;;;18.80;99.90;;;;;;5053145;28;20033;-88
2023/07/01 02:31:28;;;;;;;4.32;1.45;;;18.70;99.90;;;;;;5051925;28;20027;-88
2023/07/01 02:33:55;;;;;;;5.35;2.03;;;18.60;99.90;;;;;;5052069;28;20486;-88
2023/07/01 02:36:21;;;;;;;8.02;1.80;;;18.60;99.90;;;;;;5051572;28;20027;-89
2023/07/01 02:38:46;;;;;;;7.68;1.70;;;18.50;99.90;;;;;;5052892;28;20099;-89
2023/07/01 02:41:12;;;;;;;4.72;2.05;;;18.40;99.90;;;;;;5051711;28;20120;-87
2023/07/01 02:43:38;;;;;;;6.03;2.00;;;18.40;99.90;;;;;;5051650;28;20062;-87
2023/07/01 02:46:03;;;;;;;7.68;1.83;;;18.40;99.90;;;;;;5051411;28;20054;-89
2023/07/01 02:48:29;;;;;;;6.57;1.73;;;18.30;99.90;;;;;;5051667;28;20076;-91
2023/07/01 02:50:54;;;;;;;4.72;2.03;;;18.20;99.90;;;;;;5052866;28;20026;-92
2023/07/01 02:53:20;;;;;;;7.45;1.90;;;18.20;99.90;;;;;;5052797;28;20029;-91
2023/07/01 02:55:46;;;;;;;6.43;2.33;;;18.10;99.90;;;;;;5052019;28;20025;-91
2023/07/01 02:58:11;;;;;;;9.00;2.90;;;18.10;99.90;;;;;;5055873;28;20021;-91
2023/07/01 03:00:37;;;;;;;7.38;2.58;;;18.00;99.90;;;;;;5057012;28;20074;-91
2023/07/01 03:03:06;;;;;;;9.63;2.67;;;18.00;99.90;;;;;;5056840;28;20017;-90
2023/07/01 03:05:39;;;;;;;13.98;2.78;;;18.00;99.90;;;;;;5057026;28;20059;-89
2023/07/01 03:08:05;;;;;;;7.88;2.60;;;18.00;99.90;;;;;;5056505;28;20036;-91
2023/07/01 03:10:31;;;;;;;7.22;2.70;;;17.90;99.90;;;;;;5056856;28;20356;-91
2023/07/01 03:12:57;;;;;;;7.00;2.47;;;17.90;99.90;;;;;;5056271;28;20063;-89
2023/07/01 03:15:23;;;;;;;8.05;2.85;;;17.90;99.90;;;;;;5061927;28;20021;-91
2023/07/01 03:17:49;;;;;;;5.75;2.50;;;17.90;99.90;;;;;;5059001;28;20033;-87
2023/07/01 03:20:24;;;;;;;10.07;3.00;;;17.90;99.90;;;;;;5069639;28;20017;-87
2023/07/01 03:22:56;;;;;;;11.57;2.90;;;17.90;99.90;;;;;;5074238;28;20027;-87
2023/07/01 03:25:21;;;;;;;9.07;2.60;;;17.90;99.90;;;;;;5057395;28;20046;-88
2023/07/01 03:27:47;;;;;;;7.25;2.67;;;17.90;99.90;;;;;;5055318;28;20123;-88
2023/07/01 03:30:15;;;;;;;4.28;2.70;;;18.00;99.90;;;;;;5054938;28;20120;-88
2023/07/01 03:32:41;;;;;;;5.85;2.70;;;18.00;99.90;;;;;;5054916;28;20234;-88
2023/07/01 03:35:09;;;;;;;7.78;3.17;;;18.00;99.90;;;;;;5055529;28;20413;-89
2023/07/01 03:37:35;;;;;;;17.60;2.90;;;18.00;99.90;;;;;;5054801;28;20029;-89
2023/07/01 03:40:02;;;;;;;13.05;2.72;;;18.00;99.90;;;;;;5055867;28;20033;-88
2023/07/01 03:42:27;;;;;;;12.05;2.40;;;18.10;99.90;;;;;;5055297;28;20021;-89
2023/07/01 03:44:53;;;;;;;6.47;2.60;;;18.10;99.90;;;;;;5054938;28;20032;-89
2023/07/01 03:47:19;;;;;;;10.00;2.50;;;18.20;99.90;;;;;;5054867;28;20043;-90
2023/07/01 03:49:44;;;;;;;9.85;2.40;;;18.20;99.90;;;;;;5054754;28;20021;-89
2023/07/01 03:52:10;;;;;;;21.70;2.72;;;18.20;99.90;;;;;;5054901;28;20035;-89
2023/07/01 03:54:35;;;;;;;8.48;2.33;;;18.30;99.90;;;;;;5055163;28;20382;-93
2023/07/01 03:57:01;;;;;;;6.22;2.47;;;18.40;99.90;;;;;;5074435;28;20059;-92
2023/07/01 03:59:27;;;;;;;5.95;2.38;;;18.50;99.90;;;;;;5066720;28;20068;-94
2023/07/01 04:01:53;;;;;;;6.43;2.38;;;18.60;99.90;;;;;;5056993;28;20059;-94
2023/07/01 04:04:19;;;;;;;14.63;2.20;;;18.70;99.90;;;;;;5054954;28;20029;-94
2023/07/01 04:06:44;;;;;;;7.85;2.90;;;18.90;99.90;;;;;;5054830;28;20053;-94
2023/07/01 04:09:12;;;;;;;6.25;2.40;;;19.10;99.90;;;;;;5054132;28;20033;-94
2023/07/01 04:11:39;;;;;;;9.40;2.65;;;19.40;99.90;;;;;;5054623;28;20025;-94
2023/07/01 04:14:05;;;;;;;4.45;2.20;;;19.70;99.90;;;;;;5054756;28;20056;-93
2023/07/01 04:16:30;;;;;;;10.50;2.15;;;19.90;99.90;;;;;;5055408;28;20056;-94
2023/07/01 04:18:56;;;;;;;9.43;2.10;;;20.00;99.90;;;;;;5053713;28;20036;-94
2023/07/01 04:21:22;;;;;;;6.88;2.55;;;20.10;99.90;;;;;;5055289;28;20126;-94
2023/07/01 04:23:48;;;;;;;8.52;2.15;;;20.20;99.90;;;;;;5054024;28;20031;-94
2023/07/01 04:26:14;;;;;;;4.13;1.77;;;20.30;99.90;;;;;;5055075;28;20104;-94
2023/07/01 04:28:40;;;;;;;2.83;2.00;;;20.30;99.90;;;;;;5053929;28;20037;-94
2023/07/01 04:31:06;;;;;;;5.20;1.92;;;20.40;99.90;;;;;;5054326;28;20128;-94
2023/07/01 04:33:32;;;;;;;9.55;1.83;;;20.60;99.90;;;;;;5054115;28;20028;-91
2023/07/01 04:35:58;;;;;;;7.28;2.22;;;20.70;99.90;;;;;;5054014;28;20078;-93
2023/07/01 04:38:23;;;;;;;7.03;1.80;;;20.80;99.90;;;;;;5054903;28;20063;-92
2023/07/01 04:40:49;;;;;;;9.70;2.30;;;20.90;99.90;;;;;;5053817;28;20032;-93
2023/07/01 04:43:16;;;;;;;4.28;2.08;;;21.00;99.90;;;;;;5053734;28;20025;-90
2023/07/01 04:45:42;;;;;;;8.77;3.00;;;21.10;99.90;;;;;;5055046;28;20027;-90
2023/07/01 04:48:09;;;;;;;5.57;2.75;;;21.20;99.90;;;;;;5052536;28;20052;-90
2023/07/01 04:50:35;;;;;;;10.25;2.75;;;21.30;99.90;;;;;;5053734;28;20493;-91
2023/07/01 04:53:00;;;;;;;10.27;2.28;;;21.50;99.90;;;;;;5054333;28;20049;-92
2023/07/01 04:55:26;;;;;;;7.50;1.90;;;21.60;99.90;;;;;;5054703;28;20516;-93
2023/07/01 04:57:52;;;;;;;9.05;2.60;;;21.70;99.90;;;;;;5054658;28;20047;-94
2023/07/01 05:00:18;;;;;;;5.82;2.13;;;21.90;99.90;;;;;;5053195;28;20071;-91
2023/07/01 05:02:44;;;;;;;5.47;2.28;;;22.00;99.90;;;;;;5053599;28;20025;-89
2023/07/01 05:05:09;;;;;;;5.30;2.50;;;22.20;99.90;;;;;;5053210;28;20064;-90
2023/07/01 05:07:35;;;;;;;7.20;2.58;;;22.30;99.90;;;;;;5053104;28;20086;-91
2023/07/01 05:10:01;;;;;;;8.27;2.92;;;22.50;99.90;;;;;;5056657;28;20032;-91
2023/07/01 05:12:27;;;;;;;7.85;2.33;;;22.70;99.90;;;;;;5057049;28;20032;-92
2023/07/01 05:14:54;;;;;;;8.10;2.60;;;22.90;99.90;;;;;;5053488;28;20477;-92
2023/07/01 05:17:20;;;;;;;6.72;2.45;;;23.10;99.90;;;;;;5053090;28;20025;-92
2023/07/01 05:19:46;;;;;;;4.30;2.28;;;23.30;99.90;;;;;;5053403;28;20028;-91
2023/07/01 05:22:11;;;;;;;4.72;1.88;;;23.40;99.90;;;;;;5053682;28;20256;-92
2023/07/01 05:24:37;;;;;;;7.10;1.98;;;23.60;99.90;;;;;;5052985;28;20028;-90
2023/07/01 05:27:03;;;;;;;4.13;1.73;;;23.90;99.70;;;;;;5053347;28;20048;-89
2023/07/01 05:29:29;;;;;;;4.88;1.83;;;24.20;99.10;;;;;;5052608;28;20020;-89
2023/07/01 05:31:55;;;;;;;6.28;1.77;;;24.50;95.30;;;;;;5052597;28;20033;-89
2023/07/01 05:34:23;;;;;;;6.03;1.55;;;24.50;93.20;;;;;;5054175;28;20051;-89
2023/07/01 05:36:49;;;;;;;3.83;1.35;;;24.80;92.90;;;;;;5053762;28;20029;-89
2023/07/01 05:39:15;;;;;;;4.40;1.90;;;25.00;91.30;;;;;;5053408;28;20104;-89
2023/07/01 05:41:41;;;;;;;5.07;1.52;;;25.20;89.20;;;;;;5053881;28;20068;-90
2023/07/01 05:44:07;;;;;;;6.40;1.80;;;25.40;83.20;;;;;;5034909;28;20065;-92
2023/07/01 05:46:32;;;;;;;5.13;2.30;;;25.70;81.70;;;;;;5033925;28;20037;-92
2023/07/01 05:48:58;;;;;;;2.70;1.45;;;25.90;80.40;;;;;;5033858;28;20033;-92
2023/07/01 05:51:24;;;;;;;5.50;1.40;;;26.20;75.20;;;;;;5049459;28;20026;-91
2023/07/01 05:53:50;;;;;;;4.40;1.63;;;26.50;71.30;;;;;;5032476;28;20018;-91
2023/07/01 05:56:16;;;;;;;3.35;1.23;;;26.70;70.40;;;;;;5049811;28;20025;-88
2023/07/01 05:58:42;;;;;;;4.10;1.70;;;27.00;67.50;;;;;;5051762;28;20032;-88
2023/07/01 06:01:08;;;;;;;5.43;2.00;;;27.60;66.00;;;;;;5052878;28;20128;-88
2023/07/01 06:03:34;;;;;;;4.13;1.33;;;28.50;62.00;;;;;;5052023;28;20122;-87
2023/07/01 06:05:59;;;;;;;7.75;1.90;;;29.50;58.20;;;;;;5041936;28;20053;-85
2023/07/01 06:08:25;;;;;;;10.43;1.75;;;30.50;56.30;;;;;;5046075;28;20047;-86
2023/07/01 06:10:52;;;;;;;3.65;1.45;;;31.40;51.70;;;;;;5035168;28;20045;-86
2023/07/01 06:13:18;;;;;;;6.15;1.40;;;32.30;49.70;;;;;;5033048;28;20083;-86
2023/07/01 06:15:44;;;;;;;5.50;1.55;;;32.90;46.50;;;;;;5031419;28;20478;-86
2023/07/01 06:18:09;;;;;;;3.00;1.40;;;33.60;44.60;;;;;;5032827;28;20029;-85
2023/07/01 06:20:35;;;;;;;4.32;1.35;;;34.10;43.70;;;;;;5031368;28;20056;-86
2023/07/01 06:23:01;;;;;;;5.18;1.63;;;34.50;42.00;;;;;;5032692;28;20045;-84
2023/07/01 06:25:26;;;;;;;3.03;1.23;;;34.80;41.20;;;;;;5032841;28;20030;-86
2023/07/01 06:27:52;;;;;;;2.90;1.50;;;35.10;41.30;;;;;;5031993;28;20045;-84
2023/07/01 06:30:18;;;;;;;3.15;1.23;;;35.40;39.90;;;;;;5031212;28;20053;-85
2023/07/01 06:32:44;;;;;;;4.60;1.52;;;35.70;38.90;;;;;;5031202;28;20099;-86
2023/07/01 06:35:09;;;;;;;12.90;1.88;;;35.80;39.00;;;;;;5029838;28;20445;-86
2023/07/01 06:37:35;;;;;;;7.13;1.40;;;35.90;38.60;;;;;;5031271;28;20159;-86
2023/07/01 06:40:01;;;;;;;7.43;1.58;;;35.60;38.60;;;;;;5033023;28;20029;-87
2023/07/01 06:42:26;;;;;;;3.45;1.65;;;35.60;39.00;;;;;;5032560;28;20033;-88
2023/07/01 06:44:52;;;;;;;4.82;2.08;;;35.80;38.50;;;;;;5031355;28;20037;-85
2023/07/01 06:47:18;;;;;;;5.75;1.98;;;35.90;38.40;;;;;;5035413;28;20037;-87
2023/07/01 06:49:43;;;;;;;3.83;1.65;;;35.80;38.70;;;;;;5038767;28;20021;-86
2023/07/01 06:52:09;;;;;;;9.93;1.92;;;35.90;39.40;;;;;;5033749;28;20037;-86
2023/07/01 06:54:35;;;;;;;9.73;2.17;;;36.10;38.70;;;;;;5032107;28;20018;-86
2023/07/01 06:57:00;;;;;;;8.43;1.80;;;36.10;39.60;;;;;;5031228;28;20025;-86
2023/07/01 06:59:26;;;;;;;5.63;1.50;;;36.30;39.50;;;;;;5031450;28;20029;-87
2023/07/01 07:01:52;;;;;;;3.45;1.85;;;36.40;38.80;;;;;;5031131;28;20227;-87
2023/07/01 07:04:17;;;;;;;2.92;1.80;;;36.60;38.50;;;;;;5030498;28;20036;-85
2023/07/01 07:06:43;;;;;;;12.30;1.75;;;36.50;37.50;;;;;;5032655;28;20057;-88
2023/07/01 07:09:08;;;;;;;7.22;2.17;;;36.60;37.90;;;;;;5031483;28;20029;-87
2023/07/01 07:11:34;;;;;;;7.20;2.30;;;36.60;37.40;;;;;;5031128;28;20037;-87
2023/07/01 07:14:00;;;;;;;9.15;2.70;;;36.30;38.80;;;;;;5031542;28;20108;-87
2023/07/01 07:16:29;;;;;;;6.63;2.10;;;36.40;38.00;;;;;;5031581;28;20025;-88
2023/07/01 07:18:54;;;;;;;7.03;1.80;;;36.30;38.60;;;;;;5032193;28;20044;-86
2023/07/01 07:21:20;;;;;;;9.82;2.08;;;36.10;38.90;;;;;;5031048;28;20025;-87
2023/07/01 07:23:46;;;;;;;4.28;1.85;;;36.00;36.30;;;;;;5031354;28;20029;-84
2023/07/01 07:26:14;;;;;;;10.70;1.83;;;35.40;37.30;;;;;;5031745;28;20021;-87
2023/07/01 07:28:39;;;;;;;7.82;1.83;;;35.00;39.50;;;;;;5031514;28;20037;-86
2023/07/01 07:31:05;;;;;;;4.50;1.80;;;35.00;39.80;;;;;;5031476;28;20112;-88
2023/07/01 07:33:31;;;;;;;4.63;2.13;;;35.30;39.00;;;;;;5033107;28;20026;-84
2023/07/01 07:35:57;;;;;;;7.03;1.65;;;35.50;39.60;;;;;;5030529;28;20117;-86
2023/07/01 07:38:22;;;;;;;4.38;1.40;;;35.70;38.60;;;;;;5032351;28;20041;-86
2023/07/01 07:40:48;;;;;;;13.40;2.17;;;35.60;38.50;;;;;;5030172;28;20025;-88
2023/07/01 07:43:14;;;;;;;8.85;1.85;;;35.50;39.10;;;;;;5033416;28;20046;-88
2023/07/01 07:45:40;;;;;;;4.70;1.70;;;35.40;39.40;;;;;;5035323;28;20025;-88
2023/07/01 07:48:06;;;;;;;4.55;1.45;;;35.00;39.70;;;;;;5033848;28;20041;-88
2023/07/01 07:50:33;;;;;;;10.18;2.25;;;35.10;39.30;;;;;;5034320;28;20056;-87
2023/07/01 07:52:59;;;;;;;3.25;1.60;;;35.10;39.50;;;;;;5033756;28;20030;-87
2023/07/01 07:55:26;;;;;;;2.58;1.35;;;35.10;39.00;;;;;;5033120;28;20033;-88
2023/07/01 07:57:51;;;;;;;5.05;2.20;;;35.10;39.40;;;;;;5033955;28;20120;-85
2023/07/01 08:00:18;;;;;;;2.80;1.25;;;35.40;39.60;;;;;;5034327;28;20089;-86
2023/07/01 08:02:47;;;;;;;7.57;1.35;;;35.50;39.90;;;;;;5035039;28;20040;-87
2023/07/01 08:05:21;;;;;;;6.43;1.95;;;35.60;39.10;;;;;;5033253;28;20053;-84
2023/07/01 08:07:47;;;;;;;3.22;1.40;;;35.70;37.40;;;;;;5034631;28;20022;-87
2023/07/01 08:10:14;;;;;;;6.43;1.83;;;35.30;38.90;;;;;;5035102;28;20040;-87
2023/07/01 08:12:40;;;;;;;4.20;1.85;;;34.90;40.30;;;;;;5033590;28;20036;-86
2023/07/01 08:15:06;;;;;;;10.65;1.70;;;34.60;40.20;;;;;;5032933;28;20026;-86
2023/07/01 08:17:32;;;;;;;2.90;1.50;;;34.90;39.90;;;;;;5035217;28;20044;-87
2023/07/01 08:19:58;;;;;;;10.07;1.63;;;34.90;38.00;;;;;;5036035;28;20030;-87
2023/07/01 08:22:24;;;;;;;9.43;2.33;;;34.80;41.70;;;;;;5036683;28;20032;-88
2023/07/01 08:24:49;;;;;;;4.25;2.00;;;35.00;41.00;;;;;;5033558;28;20033;-88
2023/07/01 08:27:15;;;;;;;8.00;2.00;;;34.80;41.70;;;;;;5034242;28;20032;-87
2023/07/01 08:29:41;;;;;;;7.18;2.08;;;34.70;41.80;;;;;;5032636;28;20037;-87
2023/07/01 08:32:07;;;;;;;6.93;1.63;;;34.60;42.40;;;;;;5034551;28;20014;-88
2023/07/01 08:34:35;;;;;;;3.45;1.90;;;35.10;41.40;;;;;;5033488;28;20041;-88
2023/07/01 08:37:01;;;;;;;3.95;1.88;;;35.00;40.50;;;;;;5035344;28;20068;-88
2023/07/01 08:39:27;;;;;;;3.58;1.60;;;34.90;41.10;;;;;;5033772;28;20033;-88
2023/07/01 08:41:58;;;;;;;7.03;2.38;;;34.40;41.70;;;;;;5033482;28;20056;-86
2023/07/01 08:44:25;;;;;;;12.27;1.85;;;34.30;41.90;;;;;;5033868;28;20406;-88
2023/07/01 08:46:55;;;;;;;2.53;1.50;;;34.40;42.60;;;;;;5032422;28;20044;-85
2023/07/01 08:49:22;;;;;;;7.80;1.67;;;34.40;41.40;;;;;;5030909;28;20025;-82
2023/07/01 08:51:53;;;;;;;10.02;1.90;;;34.60;40.60;;;;;;5030585;28;20107;-81
2023/07/01 08:54:20;;;;;;;9.50;1.88;;;34.70;39.30;;;;;;5030131;28;20036;-76
2023/07/01 08:56:48;;;;;;;8.20;2.33;;;34.80;39.90;;;;;;5032673;28;20032;-87
2023/07/01 08:59:15;;;;;;;8.57;2.50;;;34.90;40.30;;;;;;5038725;28;20077;-87
2023/07/01 09:01:43;;;;;;;5.15;2.00;;;34.70;40.20;;;;;;5034476;28;20068;-88
2023/07/01 09:04:08;;;;;;;7.53;1.77;;;34.80;39.60;;;;;;5032795;28;20453;-88
2023/07/01 09:06:34;;;;;;;5.30;1.85;;;34.70;38.60;;;;;;5033214;28;20056;-86
2023/07/01 09:09:01;;;;;;;4.45;1.67;;;34.50;39.00;;;;;;5032988;28;20051;-87
2023/07/01 09:11:27;;;;;;;2.97;1.60;;;34.30;40.00;;;;;;5031646;28;20017;-87
2023/07/01 09:13:56;;;;;;;10.90;2.00;;;34.40;40.10;;;;;;5032918;28;20040;-87
2023/07/01 09:16:33;;;;;;;6.43;1.48;;;34.60;39.80;;;;;;5032337;28;20032;-87
2023/07/01 09:19:17;;;;;;;5.18;1.83;;;34.60;39.60;;;;;;5035801;28;20057;-88
2023/07/01 09:21:43;;;;;;;4.05;2.88;;;34.60;37.80;;;;;;5033521;28;20121;-87
2023/07/01 09:24:11;;;;;;;7.32;2.08;;;34.40;38.20;;;;;;5034475;28;20028;-88
2023/07/01 09:26:38;;;;;;;8.70;1.70;;;34.60;38.80;;;;;;5033767;28;20028;-87
2023/07/01 09:29:14;;;;;;;2.38;1.95;;;34.90;38.20;;;;;;5034847;28;20041;-89
2023/07/01 09:31:58;;;;;;;9.68;2.00;;;35.20;37.40;;;;;;5033564;28;20076;-88
2023/07/01 09:34:24;;;;;;;13.25;2.40;;;35.20;37.30;;;;;;5033515;28;20030;-86
2023/07/01 09:36:49;;;;;;;7.50;1.85;;;35.30;37.80;;;;;;5033272;28;20079;-86
2023/07/01 09:39:31;;;;;;;3.75;2.30;;;35.80;37.00;;;;;;5033138;28;20054;-86
2023/07/01 09:42:04;;;;;;;5.07;2.90;;;36.00;36.30;;;;;;5032178;28;20067;-87
2023/07/01 09:44:30;;;;;;;3.63;1.55;;;35.90;35.50;;;;;;5033426;28;20079;-87
2023/07/01 09:46:56;;;;;;;7.53;1.58;;;35.80;35.10;;;;;;5032805;28;20029;-86
2023/07/01 09:49:36;;;;;;;6.60;2.70;;;35.80;36.80;;;;;;5033240;28;20098;-86
2023/07/01 09:52:03;;;;;;;7.18;2.40;;;35.90;37.20;;;;;;5033685;28;20022;-86
2023/07/01 09:54:30;;;;;;;4.72;1.45;;;35.80;37.40;;;;;;5032936;28;20025;-86
2023/07/01 09:56:58;;;;;;;10.93;2.50;;;35.80;38.10;;;;;;5032653;28;20021;-85
2023/07/01 09:59:24;;;;;;;9.95;2.28;;;35.80;37.70;;;;;;5032063;28;20127;-84
2023/07/01 10:02:01;;;;;;;7.47;2.00;;;35.60;38.30;;;;;;5032938;28;20024;-87
2023/07/01 10:04:28;;;;;;;3.65;2.15;;;35.50;38.10;;;;;;5033249;28;20033;-85
2023/07/01 10:06:54;;;;;;;3.38;1.90;;;35.30;37.80;;;;;;5012889;28;20152;-85
2023/07/01 10:09:23;;;;;;;4.22;2.35;;;34.90;36.80;;;;;;5012342;28;20080;-85
2023/07/01 10:11:54;;;;;;;3.50;1.77;;;34.20;39.80;;;;;;5013554;28;20376;-85
2023/07/01 10:14:23;;;;;;;5.22;1.85;;;33.90;40.80;;;;;;5022446;28;20057;-85
2023/07/01 10:16:49;;;;;;;3.78;1.90;;;33.80;40.40;;;;;;5027025;28;20101;-85
2023/07/01 10:19:26;;;;;;;6.03;2.50;;;33.70;40.50;;;;;;5022718;28;20057;-85
2023/07/01 10:21:52;;;;;;;7.72;1.98;;;33.70;40.40;;;;;;5011425;28;20034;-85
2023/07/01 10:24:37;;;;;;;4.68;2.47;;;33.70;39.90;;;;;;5014147;28;20033;-85
2023/07/01 10:27:04;;;;;;;3.50;2.30;;;33.50;39.20;;;;;;5014134;28;20041;-86
2023/07/01 10:29:30;;;;;;;11.50;2.38;;;32.80;39.00;;;;;;5013157;28;20629;-87
2023/07/01 10:32:11;;;;;;;3.78;2.03;;;32.70;40.70;;;;;;5015122;28;20048;-86
2023/07/01 10:34:55;;;;;;;3.30;1.90;;;32.60;43.10;;;;;;5012589;28;20072;-87
2023/07/01 10:37:23;;;;;;;3.85;2.10;;;32.70;42.60;;;;;;5010919;28;20561;-85
2023/07/01 10:39:49;;;;;;;9.15;1.73;;;32.80;41.80;;;;;;5010618;28;20521;-86
2023/07/01 10:42:31;;;;;;;3.28;1.88;;;33.00;41.90;;;;;;5012234;28;20076;-86
2023/07/01 10:45:12;;;;;;;3.30;2.05;;;33.00;40.50;;;;;;5011782;28;20041;-87
2023/07/01 10:47:48;;;;;;;5.10;1.83;;;33.00;41.40;;;;;;5011030;28;20045;-87
2023/07/01 10:50:17;;;;;;;2.53;1.92;;;33.10;40.30;;;;;;5011653;28;20030;-86
2023/07/01 10:53:04;;;;;;;8.60;1.98;;;33.10;39.10;;;;;;5016517;28;20022;-86
2023/07/01 10:55:40;;;;;;;4.47;1.77;;;33.00;40.00;;;;;;5012427;28;20563;-87
2023/07/01 10:58:23;;;;;;;7.57;1.70;;;33.00;41.30;;;;;;5011721;28;20084;-87
2023/07/01 11:00:49;;;;;;;2.55;1.80;;;32.90;40.80;;;;;;5010185;28;20049;-87
2023/07/01 11:03:34;;;;;;;3.25;1.77;;;32.90;40.40;;;;;;5011297;28;20481;-86
2023/07/01 11:06:00;;;;;;;4.15;2.13;;;32.90;40.00;;;;;;5023457;28;20057;-86
2023/07/01 11:08:26;;;;;;;2.97;1.70;;;32.90;40.60;;;;;;5029747;28;20152;-86
2023/07/01 11:10:52;;;;;;;4.63;1.88;;;33.00;40.00;;;;;;5030954;28;20381;-86
2023/07/01 11:13:18;;;;;;;6.95;2.08;;;33.00;39.70;;;;;;5031140;28;20037;-87
2023/07/01 11:16:06;;;;;;;2.42;1.77;;;33.00;40.80;;;;;;5032160;28;20025;-87
2023/07/01 11:18:41;;;;;;;2.67;1.67;;;33.00;42.00;;;;;;5035116;28;20030;-87
2023/07/01 11:21:11;;;;;;;;;;;33.00;41.30;;;;;;5035002;28;20025;-87
2023/07/01 11:23:38;;;;;;;5.50;1.98;;;33.10;42.10;;;;;;5033903;28;19958;-88
2023/07/01 11:26:04;;;;;;;3.58;2.05;;;33.20;41.50;;;;;;5034425;28;20180;-89
2023/07/01 11:28:37;;;;;;;2.80;1.60;;;33.20;42.10;;;;;;5034591;28;20053;-88
2023/07/01 11:31:16;;;;;;;3.45;1.73;;;33.10;41.30;;;;;;5033272;28;20021;-86
2023/07/01 11:33:44;;;;;;;7.30;1.50;;;32.90;40.40;;;;;;5034703;28;20087;-85
2023/07/01 11:36:12;;;;;;;6.88;1.65;;;32.90;39.90;;;;;;5034912;28;20029;-88
2023/07/01 11:38:37;;;;;;;4.70;2.35;;;32.80;39.50;;;;;;5033705;28;20560;-86
2023/07/01 11:41:03;;;;;;;6.15;1.63;;;32.80;40.20;;;;;;5034489;28;20141;-88
2023/07/01 11:43:29;;;;;;;2.67;1.70;;;32.70;41.30;;;;;;5034043;28;20116;-86
2023/07/01 11:45:55;;;;;;;3.65;1.80;;;32.70;40.50;;;;;;5034485;28;20032;-88
2023/07/01 11:48:33;;;;;;;5.45;1.92;;;32.70;39.90;;;;;;5033583;28;20037;-88
2023/07/01 11:50:59;;;;;;;3.80;1.80;;;32.80;41.90;;;;;;5034110;28;20017;-87
2023/07/01 11:53:26;;;;;;;2.65;1.80;;;32.90;41.80;;;;;;5033319;28;20088;-87
2023/07/01 11:55:53;;;;;;;2.95;1.90;;;32.90;41.80;;;;;;5035345;28;20022;-88
2023/07/01 11:58:37;;;;;;;5.65;2.65;;;33.00;41.50;;;;;;5038040;28;20029;-87
2023/07/01 12:01:21;;;;;;;7.00;1.95;;;33.00;42.20;;;;;;5033265;28;20510;-89
2023/07/01 12:03:46;;;;;;;3.70;2.05;;;32.90;41.40;;;;;;5035414;28;20494;-87
2023/07/01 12:06:22;;;;;;;10.15;1.80;;;32.80;41.40;;;;;;5037907;28;20061;-88
2023/07/01 12:08:52;;;;;;;3.83;1.75;;;32.70;41.40;;;;;;5035503;28;20025;-88
2023/07/01 12:11:18;;;;;;;3.55;1.98;;;32.60;42.10;;;;;;5034382;28;20033;-88
2023/07/01 12:13:44;;;;;;;3.85;1.80;;;32.30;42.00;;;;;;5034137;28;20026;-87
2023/07/01 12:16:10;;;;;;;3.92;1.85;;;32.10;42.60;;;;;;5034529;28;20021;-90
2023/07/01 12:18:35;;;;;;;5.57;2.13;;;32.00;43.30;;;;;;5032567;28;20022;-87
2023/07/01 12:21:01;;;;;;;4.38;2.08;;;32.10;44.40;;;;;;5032414;28;20513;-89
2023/07/01 12:23:27;;;;;;;3.38;2.20;;;32.00;45.40;;;;;;5032207;28;20494;-88
2023/07/01 12:25:52;;;;;;;5.13;2.10;;;32.00;44.90;;;;;;5033306;28;20161;-88
2023/07/01 12:28:20;;;;;;;5.15;2.00;;;32.00;45.70;;;;;;5031736;28;20033;-87
2023/07/01 12:30:46;;;;;;;4.32;2.08;;;32.00;45.30;;;;;;5016090;28;20032;-89
2023/07/01 12:33:11;;;;;;;8.27;2.28;;;32.20;44.50;;;;;;5032226;28;20025;-90
2023/07/01 12:35:40;;;;;;;6.65;1.73;;;32.30;45.00;;;;;;5032428;28;20029;-89
2023/07/01 12:38:10;;;;;;;3.92;2.25;;;32.50;45.00;;;;;;5032138;28;20053;-87
2023/07/01 12:40:36;;;;;;;6.40;2.20;;;32.40;42.80;;;;;;5032857;28;20421;-88
2023/07/01 12:43:01;;;;;;;2.92;1.63;;;32.30;41.20;;;;;;5038448;28;20035;-88
2023/07/01 12:45:27;;;;;;;3.13;2.03;;;32.20;43.60;;;;;;5038753;28;20034;-88
2023/07/01 12:47:54;;;;;;;3.65;1.77;;;32.10;43.60;;;;;;5040803;28;20025;-87
2023/07/01 12:50:21;;;;;;;5.97;1.98;;;32.10;44.00;;;;;;5036861;28;20025;-87